Time;durP1;ratioP1;P1;durP2;ratioP2;P2;SDS_P1;SDS_P2;PMS_P1;PMS_P2;Temp;Humidity;BMP_temperature;BMP_pressure;BME280_temperature;BME280_humidity;BME280_pressure;Samples;Min_cycle;Max_cycle;Signal;HPM_P1;HPM_P2
2023/01/06 00:02:17;;;;;;;13.97;5.00;;;8.90;99.90;;;;;;5056487;28;20215;-85
2023/01/06 00:04:44;;;;;;;15.03;4.83;;;8.90;99.90;;;;;;5073958;28;20221;-85
2023/01/06 00:07:11;;;;;;;15.20;4.47;;;8.90;99.90;;;;;;5073475;28;20259;-85
2023/01/06 00:09:38;;;;;;;11.63;4.57;;;9.00;99.90;;;;;;5074491;28;20198;-85
2023/01/06 00:12:05;;;;;;;11.67;4.67;;;8.90;99.90;;;;;;5072747;28;20233;-85
2023/01/06 00:14:32;;;;;;;9.40;4.37;;;8.90;99.90;;;;;;5068934;28;20203;-85
2023/01/06 00:16:59;;;;;;;9.97;4.80;;;9.00;99.90;;;;;;5074210;28;20289;-86
2023/01/06 00:19:27;;;;;;;10.73;4.67;;;9.00;99.90;;;;;;5073998;28;20221;-86
2023/01/06 00:21:54;;;;;;;13.33;4.87;;;9.00;99.90;;;;;;5073766;28;20308;-85
2023/01/06 00:24:20;;;;;;;9.67;4.63;;;9.00;99.90;;;;;;5062230;28;20579;-85
2023/01/06 00:26:47;;;;;;;12.83;4.83;;;9.10;99.90;;;;;;5073658;28;20222;-85
2023/01/06 00:29:14;;;;;;;14.60;6.17;;;9.10;99.90;;;;;;5074058;28;20281;-85
2023/01/06 00:31:41;;;;;;;13.67;5.43;;;9.10;99.90;;;;;;5074864;28;20201;-85
2023/01/06 00:34:09;;;;;;;12.93;5.13;;;9.10;99.90;;;;;;5074228;28;20210;-85
2023/01/06 00:36:37;;;;;;;13.33;5.23;;;9.10;99.90;;;;;;5073657;28;20205;-85
2023/01/06 00:39:04;;;;;;;12.10;5.07;;;9.10;99.90;;;;;;5073493;28;20210;-86
2023/01/06 00:44:15;;;;;;;12.27;4.97;;;9.10;99.90;;;;;;5073773;28;20202;-85
2023/01/06 00:46:42;;;;;;;11.30;4.93;;;9.10;99.90;;;;;;5073727;28;20305;-86
2023/01/06 00:49:09;;;;;;;7.80;4.50;;;9.10;99.90;;;;;;5074548;28;20202;-85
2023/01/06 00:51:39;;;;;;;10.77;4.80;;;9.10;99.90;;;;;;5073447;28;20202;-85
2023/01/06 00:54:06;;;;;;;11.73;4.80;;;9.10;99.90;;;;;;5073174;28;20213;-85
2023/01/06 00:56:36;;;;;;;9.93;4.13;;;9.00;99.90;;;;;;5073922;28;20198;-86
2023/01/06 00:59:03;;;;;;;12.23;4.57;;;9.10;99.90;;;;;;5074486;28;20206;-85
2023/01/06 01:01:30;;;;;;;12.47;4.33;;;9.00;99.90;;;;;;5073488;28;20198;-85
2023/01/06 01:03:57;;;;;;;10.47;4.13;;;9.20;99.90;;;;;;5058624;28;20205;-85
2023/01/06 01:06:24;;;;;;;11.23;3.97;;;9.10;99.90;;;;;;5072041;28;20221;-85
2023/01/06 01:08:55;;;;;;;8.17;4.47;;;9.10;99.90;;;;;;5074096;28;20206;-85
2023/01/06 01:14:07;;;;;;;8.37;3.50;;;9.10;99.90;;;;;;5073082;28;20712;-80
2023/01/06 01:16:33;;;;;;;10.07;3.93;;;9.10;99.90;;;;;;5054531;28;20229;-80
2023/01/06 01:19:01;;;;;;;12.47;4.13;;;9.10;99.90;;;;;;5052105;28;20202;-80
2023/01/06 01:21:27;;;;;;;13.30;4.47;;;9.10;99.90;;;;;;5063187;28;20285;-80
2023/01/06 01:23:56;;;;;;;8.70;4.00;;;9.10;99.90;;;;;;5062222;28;20203;-80
2023/01/06 01:26:22;;;;;;;7.83;3.87;;;9.20;99.90;;;;;;5052192;28;20610;-80
2023/01/06 01:28:49;;;;;;;10.73;4.03;;;9.20;99.90;;;;;;5052481;28;20199;-79
2023/01/06 01:31:16;;;;;;;12.70;4.63;;;9.30;99.90;;;;;;5050533;28;20199;-80
2023/01/06 01:33:43;;;;;;;8.47;4.40;;;9.30;99.90;;;;;;5071395;28;20240;-80
2023/01/06 01:36:13;;;;;;;11.53;4.60;;;9.30;99.90;;;;;;5071058;28;20194;-80
2023/01/06 01:38:40;;;;;;;10.77;4.60;;;9.30;99.90;;;;;;5064821;28;20202;-79
2023/01/06 01:41:13;;;;;;;9.53;4.50;;;9.30;99.90;;;;;;5070661;28;20681;-79
2023/01/06 01:43:44;;;;;;;10.07;4.67;;;9.30;99.90;;;;;;5071812;28;20236;-80
2023/01/06 01:46:11;;;;;;;7.07;3.90;;;9.30;99.90;;;;;;5059293;28;20214;-80
2023/01/06 01:48:39;;;;;;;10.77;4.07;;;9.30;99.90;;;;;;5072014;28;20203;-80
2023/01/06 01:51:09;;;;;;;9.03;4.20;;;9.30;99.90;;;;;;5074580;28;20198;-79
2023/01/06 01:53:39;;;;;;;7.90;4.60;;;9.30;99.90;;;;;;5069084;28;20585;-80
2023/01/06 01:56:10;;;;;;;12.97;4.57;;;9.20;99.90;;;;;;5069996;28;20225;-80
2023/01/06 01:58:42;;;;;;;7.67;3.80;;;9.20;99.90;;;;;;5064676;28;20209;-79
2023/01/06 02:01:11;;;;;;;8.93;3.47;;;9.30;99.90;;;;;;5076175;28;20585;-80
2023/01/06 02:03:38;;;;;;;8.93;4.43;;;9.20;99.90;;;;;;5074243;28;20225;-80
2023/01/06 02:06:10;;;;;;;7.90;4.03;;;9.10;99.90;;;;;;5075020;28;20233;-80
2023/01/06 02:08:40;;;;;;;7.57;3.60;;;9.20;99.90;;;;;;5073471;28;20217;-80
2023/01/06 02:11:08;;;;;;;6.80;3.50;;;9.20;99.90;;;;;;5054033;28;20195;-80
2023/01/06 02:13:39;;;;;;;6.33;3.00;;;9.20;99.90;;;;;;5054985;28;20691;-80
2023/01/06 02:16:15;;;;;;;6.17;2.97;;;9.20;99.90;;;;;;5055659;28;20207;-80
2023/01/06 02:18:53;;;;;;;8.43;3.73;;;9.10;99.90;;;;;;5054879;28;20206;-80
2023/01/06 02:21:33;;;;;;;7.10;3.33;;;9.20;99.90;;;;;;5054673;28;20214;-80
2023/01/06 02:24:43;;;;;;;6.50;3.97;;;9.10;99.90;;;;;;5053693;28;20209;-79
2023/01/06 02:27:41;;;;;;;6.00;3.40;;;9.20;99.90;;;;;;5055352;28;20225;-79
2023/01/06 02:30:35;;;;;;;8.03;3.57;;;9.20;99.90;;;;;;5038134;28;20202;-80
2023/01/06 02:33:20;;;;;;;5.80;3.43;;;9.20;99.90;;;;;;5066716;28;20222;-79
2023/01/06 02:36:17;;;;;;;5.53;3.07;;;9.10;99.90;;;;;;5073077;28;20218;-80
2023/01/06 02:38:56;;;;;;;9.03;2.83;;;9.10;99.90;;;;;;5075008;28;20217;-79
2023/01/06 02:41:33;;;;;;;7.00;3.00;;;9.20;99.90;;;;;;5071674;28;20294;-80
2023/01/06 02:44:04;;;;;;;3.17;2.60;;;9.30;99.90;;;;;;5053158;28;20655;-80
2023/01/06 02:46:50;;;;;;;5.87;2.70;;;9.30;99.90;;;;;;5054925;28;20209;-80
2023/01/06 02:49:27;;;;;;;7.27;2.97;;;9.30;99.90;;;;;;5053899;28;20212;-80
2023/01/06 02:51:59;;;;;;;3.47;2.00;;;9.40;99.90;;;;;;5054028;28;20223;-80
2023/01/06 02:54:33;;;;;;;6.70;2.60;;;9.40;99.90;;;;;;5060968;28;20202;-80
2023/01/06 02:57:08;;;;;;;2.63;2.20;;;9.40;99.90;;;;;;5054154;28;20203;-79
2023/01/06 02:59:40;;;;;;;4.57;2.20;;;9.50;99.90;;;;;;5054214;28;20187;-80
2023/01/06 03:02:09;;;;;;;4.97;2.23;;;9.40;99.90;;;;;;5063950;28;20692;-79
2023/01/06 03:04:41;;;;;;;3.93;2.33;;;9.50;99.90;;;;;;5053387;28;20214;-79
2023/01/06 03:07:09;;;;;;;4.23;2.20;;;9.60;99.90;;;;;;5053143;28;20226;-80
2023/01/06 03:09:38;;;;;;;4.00;2.13;;;9.50;99.90;;;;;;5066970;28;20221;-80
2023/01/06 03:12:10;;;;;;;5.60;2.23;;;9.60;99.90;;;;;;5073948;28;20264;-80
2023/01/06 03:14:41;;;;;;;6.47;1.77;;;9.60;99.90;;;;;;5073770;28;20202;-80
2023/01/06 03:17:08;;;;;;;12.87;2.50;;;9.60;99.90;;;;;;5074147;28;20188;-80
2023/01/06 03:19:36;;;;;;;4.13;2.00;;;9.60;99.90;;;;;;5074377;28;20204;-80
2023/01/06 03:22:04;;;;;;;3.73;1.80;;;9.60;99.90;;;;;;5073828;28;20568;-80
2023/01/06 03:24:31;;;;;;;4.50;2.30;;;9.60;99.90;;;;;;5073600;28;20308;-80
2023/01/06 03:26:59;;;;;;;4.77;1.83;;;9.50;99.90;;;;;;5073716;28;20765;-79
2023/01/06 03:29:26;;;;;;;2.27;2.00;;;9.50;99.90;;;;;;5053608;28;20199;-79
2023/01/06 03:32:01;;;;;;;6.53;2.27;;;9.50;99.90;;;;;;5053039;28;20254;-80
2023/01/06 03:34:43;;;;;;;7.87;2.47;;;9.50;99.90;;;;;;5073350;28;20228;-79
2023/01/06 03:37:21;;;;;;;4.80;1.67;;;9.60;99.90;;;;;;5073220;28;20697;-80
2023/01/06 03:39:56;;;;;;;3.67;1.73;;;9.60;99.90;;;;;;5073531;28;20202;-80
2023/01/06 03:45:42;;;;;;;8.70;2.60;;;9.60;99.90;;;;;;5054148;28;20233;-80
2023/01/06 03:48:17;;;;;;;7.60;2.07;;;9.60;99.90;;;;;;5052596;28;20198;-80
2023/01/06 03:50:50;;;;;;;3.53;1.90;;;9.60;99.90;;;;;;5060969;28;20288;-80
2023/01/06 03:53:27;;;;;;;2.90;1.97;;;9.70;99.90;;;;;;5067813;28;20215;-80
2023/01/06 03:56:00;;;;;;;4.10;2.30;;;9.70;99.90;;;;;;5065750;28;20198;-80
2023/01/06 03:58:29;;;;;;;4.10;2.57;;;9.70;99.90;;;;;;5073757;28;20682;-79
2023/01/06 04:00:57;;;;;;;6.60;2.43;;;9.70;99.90;;;;;;5067168;28;20294;-80
2023/01/06 04:03:25;;;;;;;3.63;2.53;;;9.70;99.90;;;;;;5052326;28;20253;-80
2023/01/06 04:05:54;;;;;;;4.47;2.90;;;9.70;99.90;;;;;;5053250;28;20572;-80
2023/01/06 04:08:21;;;;;;;4.07;2.60;;;9.70;99.90;;;;;;5051877;28;20203;-79
2023/01/06 04:10:47;;;;;;;4.00;2.10;;;9.80;99.90;;;;;;5056672;28;20794;-80
2023/01/06 04:13:13;;;;;;;5.17;2.20;;;9.80;99.90;;;;;;5065624;28;20582;-79
2023/01/06 04:15:41;;;;;;;4.03;2.30;;;9.80;99.90;;;;;;5061682;28;20201;-80
2023/01/06 04:18:08;;;;;;;2.77;2.40;;;9.70;99.90;;;;;;5073712;28;20202;-79
2023/01/06 04:20:34;;;;;;;3.73;2.27;;;9.70;99.90;;;;;;5072973;28;20198;-78
2023/01/06 04:23:03;;;;;;;5.67;2.30;;;9.70;99.90;;;;;;5074557;28;20224;-79
2023/01/06 04:25:29;;;;;;;5.17;2.07;;;9.70;99.90;;;;;;5073149;28;20305;-79
2023/01/06 04:27:56;;;;;;;4.67;2.53;;;9.60;99.90;;;;;;5072903;28;20226;-79
2023/01/06 04:30:23;;;;;;;4.50;2.23;;;9.70;99.90;;;;;;5053233;28;20266;-79
2023/01/06 04:32:50;;;;;;;5.30;2.20;;;9.70;99.90;;;;;;5052842;28;20227;-79
2023/01/06 04:35:17;;;;;;;4.07;2.27;;;9.60;99.90;;;;;;5066346;28;20198;-79
2023/01/06 04:37:43;;;;;;;3.20;2.87;;;9.60;99.90;;;;;;5073325;28;20198;-79
2023/01/06 04:40:12;;;;;;;4.13;2.10;;;9.60;99.90;;;;;;5073408;28;20218;-79
2023/01/06 04:45:23;;;;;;;3.67;2.30;;;9.70;99.90;;;;;;5073701;28;20557;-79
2023/01/06 04:47:50;;;;;;;3.47;2.20;;;9.70;99.90;;;;;;5072970;28;20237;-79
2023/01/06 04:50:17;;;;;;;3.07;2.40;;;9.70;99.90;;;;;;5073558;28;20584;-79
2023/01/06 04:52:43;;;;;;;2.60;1.80;;;9.70;99.90;;;;;;5072744;28;20701;-79
2023/01/06 04:55:12;;;;;;;4.07;2.10;;;9.70;99.90;;;;;;5073327;28;20686;-79
2023/01/06 04:57:38;;;;;;;2.50;2.10;;;9.60;99.90;;;;;;5072944;28;20201;-79
2023/01/06 05:00:07;;;;;;;3.33;1.97;;;9.60;99.90;;;;;;5073162;28;20208;-79
2023/01/06 05:02:34;;;;;;;3.73;1.83;;;9.60;99.90;;;;;;5072929;28;20218;-79
2023/01/06 05:05:00;;;;;;;2.23;1.57;;;9.70;99.90;;;;;;5073202;28;20674;-79
2023/01/06 05:07:27;;;;;;;5.03;1.97;;;9.70;99.90;;;;;;5072552;28;20224;-79
2023/01/06 05:09:54;;;;;;;2.80;1.70;;;9.70;99.90;;;;;;5072592;28;20191;-79
2023/01/06 05:12:22;;;;;;;4.10;1.90;;;9.80;99.90;;;;;;5072449;28;20226;-79
2023/01/06 05:14:49;;;;;;;3.27;1.90;;;9.80;99.90;;;;;;5072671;28;20198;-79
2023/01/06 05:17:16;;;;;;;5.27;1.87;;;9.70;99.90;;;;;;5073000;28;20194;-79
2023/01/06 05:19:44;;;;;;;3.63;1.67;;;9.80;99.90;;;;;;5072740;28;20217;-79
2023/01/06 05:22:11;;;;;;;3.77;1.97;;;9.90;99.90;;;;;;5072132;28;20347;-79
2023/01/06 05:24:38;;;;;;;8.67;2.00;;;9.90;99.90;;;;;;5074643;28;20206;-79
2023/01/06 05:27:05;;;;;;;3.03;1.37;;;9.90;99.90;;;;;;5076461;28;20228;-79
2023/01/06 05:29:34;;;;;;;4.10;1.53;;;9.90;99.90;;;;;;5076755;28;20676;-79
2023/01/06 05:32:00;;;;;;;4.37;1.60;;;9.90;99.90;;;;;;5075991;28;20226;-79
2023/01/06 05:34:28;;;;;;;2.23;1.73;;;9.80;99.90;;;;;;5076264;28;20209;-79
2023/01/06 05:36:55;;;;;;;3.00;1.20;;;9.90;99.90;;;;;;5075651;28;20206;-79
2023/01/06 05:39:22;;;;;;;4.80;1.60;;;9.90;99.90;;;;;;5075356;28;20572;-79
2023/01/06 05:41:49;;;;;;;1.97;1.20;;;9.90;99.90;;;;;;5076064;28;20216;-79
2023/01/06 05:44:15;;;;;;;3.10;1.30;;;10.00;99.90;;;;;;5076430;28;20198;-79
2023/01/06 05:46:44;;;;;;;1.30;1.00;;;10.00;99.90;;;;;;5072217;28;20222;-79
2023/01/06 05:49:10;;;;;;;3.90;1.53;;;10.10;99.90;;;;;;5074816;28;20202;-79
2023/01/06 05:51:37;;;;;;;1.77;1.20;;;10.10;99.90;;;;;;5074172;28;20206;-79
2023/01/06 05:54:08;;;;;;;5.07;1.20;;;10.10;99.90;;;;;;5075658;28;20203;-79
2023/01/06 05:56:35;;;;;;;2.30;1.40;;;10.10;99.90;;;;;;5075907;28;20232;-79
2023/01/06 05:59:02;;;;;;;1.43;1.20;;;10.30;99.90;;;;;;5074754;28;20206;-79
2023/01/06 06:01:31;;;;;;;2.70;1.00;;;10.10;99.90;;;;;;5075848;28;20213;-79
2023/01/06 06:03:59;;;;;;;4.00;1.10;;;10.10;99.90;;;;;;5075363;28;20202;-79
2023/01/06 06:06:28;;;;;;;2.87;1.37;;;10.10;99.90;;;;;;5073774;28;20202;-79
2023/01/06 06:08:55;;;;;;;3.83;1.57;;;10.20;99.90;;;;;;5075183;28;20582;-80
2023/01/06 06:11:22;;;;;;;1.77;1.20;;;10.10;99.90;;;;;;5075441;28;20209;-79
2023/01/06 06:13:50;;;;;;;1.37;1.00;;;10.10;99.90;;;;;;5076069;28;20226;-80
2023/01/06 06:16:19;;;;;;;1.33;0.87;;;10.20;99.90;;;;;;5073373;28;20202;-79
2023/01/06 06:18:50;;;;;;;2.87;1.07;;;10.20;99.90;;;;;;5056181;28;20221;-79
2023/01/06 06:21:19;;;;;;;4.80;1.00;;;10.20;99.90;;;;;;5055728;28;20298;-79
2023/01/06 06:23:47;;;;;;;4.23;1.10;;;10.10;99.90;;;;;;5054810;28;20230;-80
2023/01/06 06:26:14;;;;;;;1.10;0.80;;;10.10;99.90;;;;;;5054937;28;20210;-79
2023/01/06 06:28:41;;;;;;;1.03;0.90;;;10.20;99.90;;;;;;5056169;28;20313;-80
2023/01/06 06:31:10;;;;;;;2.10;0.60;;;10.10;99.90;;;;;;5055474;28;20209;-79
2023/01/06 06:33:37;;;;;;;5.00;1.47;;;10.10;99.90;;;;;;5055289;28;20223;-79
2023/01/06 06:36:08;;;;;;;2.37;1.00;;;10.10;99.90;;;;;;5056245;28;20214;-79
2023/01/06 06:38:36;;;;;;;1.90;0.90;;;10.20;99.90;;;;;;5055642;28;20199;-80
2023/01/06 06:41:03;;;;;;;1.37;1.00;;;10.10;99.90;;;;;;5054777;28;20215;-80
2023/01/06 06:43:30;;;;;;;2.30;1.00;;;10.10;99.90;;;;;;5054349;28;20655;-81
2023/01/06 06:45:57;;;;;;;4.00;2.43;;;10.10;99.90;;;;;;5053648;28;20299;-81
2023/01/06 06:48:24;;;;;;;3.10;1.10;;;10.20;99.90;;;;;;5066453;28;20222;-81
2023/01/06 06:50:56;;;;;;;1.30;1.20;;;10.20;99.90;;;;;;5074789;28;20202;-80
2023/01/06 06:53:23;;;;;;;2.37;1.37;;;10.20;99.90;;;;;;5073336;28;20226;-80
2023/01/06 06:55:51;;;;;;;1.63;0.93;;;10.40;99.90;;;;;;5070403;28;20652;-80
2023/01/06 06:58:21;;;;;;;2.20;1.17;;;10.20;99.90;;;;;;5075579;28;20212;-80
2023/01/06 07:00:48;;;;;;;1.20;1.10;;;10.20;99.90;;;;;;5074194;28;20206;-80
2023/01/06 07:03:14;;;;;;;3.90;1.20;;;10.10;99.90;;;;;;5075339;28;20261;-80
2023/01/06 07:05:42;;;;;;;3.47;1.30;;;10.20;99.90;;;;;;5068320;28;20211;-80
2023/01/06 07:08:09;;;;;;;2.00;1.33;;;10.10;99.90;;;;;;5055506;28;20249;-80
2023/01/06 07:10:36;;;;;;;2.80;1.43;;;10.10;99.90;;;;;;5053942;28;20555;-80
2023/01/06 07:13:04;;;;;;;2.33;1.07;;;10.00;99.90;;;;;;5055019;28;20322;-80
2023/01/06 07:15:31;;;;;;;1.17;1.07;;;10.00;99.90;;;;;;5053303;28;20207;-80
2023/01/06 07:18:00;;;;;;;2.17;1.13;;;10.10;99.90;;;;;;5055920;28;20207;-80
2023/01/06 07:20:26;;;;;;;3.53;1.47;;;10.00;99.90;;;;;;5067544;28;20190;-80
2023/01/06 07:22:56;;;;;;;2.57;1.40;;;10.00;99.90;;;;;;5071137;28;20218;-80
2023/01/06 07:25:23;;;;;;;2.27;1.40;;;10.00;99.90;;;;;;5072476;28;20206;-80
2023/01/06 07:27:54;;;;;;;3.90;1.83;;;9.90;99.90;;;;;;5074654;28;20317;-80
2023/01/06 07:30:22;;;;;;;1.40;1.30;;;10.10;99.90;;;;;;5075794;28;20248;-80
2023/01/06 07:32:50;;;;;;;3.80;1.50;;;10.20;99.90;;;;;;5073896;28;20238;-81
2023/01/06 07:35:17;;;;;;;3.20;1.77;;;10.10;99.90;;;;;;5074321;28;20514;-79
2023/01/06 07:37:44;;;;;;;1.57;1.43;;;10.20;99.90;;;;;;5074120;28;20293;-80
2023/01/06 07:40:11;;;;;;;3.60;1.47;;;10.30;99.90;;;;;;5074517;28;20202;-81
2023/01/06 07:42:38;;;;;;;4.83;1.30;;;10.30;99.90;;;;;;5075428;28;20230;-79
2023/01/06 07:45:06;;;;;;;1.30;1.20;;;10.30;99.90;;;;;;5074149;28;20212;-79
2023/01/06 07:47:34;;;;;;;2.07;1.30;;;10.40;99.90;;;;;;5074357;28;20263;-80
2023/01/06 07:50:01;;;;;;;2.93;1.50;;;10.40;99.90;;;;;;5074093;28;20297;-80
2023/01/06 07:52:28;;;;;;;2.40;1.50;;;10.40;99.90;;;;;;5074134;28;20222;-79
2023/01/06 07:54:58;;;;;;;3.97;1.37;;;10.30;99.90;;;;;;5074717;28;20203;-79
2023/01/06 07:57:25;;;;;;;3.90;1.47;;;10.30;99.90;;;;;;5076334;28;20209;-80
2023/01/06 07:59:52;;;;;;;3.60;1.50;;;10.30;99.90;;;;;;5076026;28;20210;-79
2023/01/06 08:02:19;;;;;;;2.70;1.10;;;10.30;99.90;;;;;;5074631;28;20221;-80
2023/01/06 08:04:47;;;;;;;4.63;1.60;;;10.40;99.90;;;;;;5075151;28;20206;-80
2023/01/06 08:07:15;;;;;;;5.07;1.60;;;10.40;99.90;;;;;;5074876;28;20212;-80
2023/01/06 08:09:42;;;;;;;3.77;1.20;;;10.50;99.90;;;;;;5074683;28;20589;-80
2023/01/06 08:12:09;;;;;;;2.07;1.33;;;10.50;99.90;;;;;;5069082;28;20230;-80
2023/01/06 08:14:35;;;;;;;5.23;1.40;;;10.50;99.90;;;;;;5074580;28;20677;-80
2023/01/06 08:17:02;;;;;;;2.20;1.40;;;10.60;99.90;;;;;;5074760;28;20577;-82
2023/01/06 08:19:29;;;;;;;2.67;1.30;;;10.60;99.90;;;;;;5074595;28;20198;-80
2023/01/06 08:21:57;;;;;;;2.03;1.30;;;10.50;99.90;;;;;;5074145;28;20222;-79
2023/01/06 08:24:24;;;;;;;6.37;1.37;;;10.60;99.90;;;;;;5073855;28;20199;-81
2023/01/06 08:26:51;;;;;;;2.57;1.30;;;10.60;99.90;;;;;;5073050;28;20760;-80
2023/01/06 08:29:17;;;;;;;2.70;1.57;;;10.60;99.90;;;;;;5073510;28;20595;-80
2023/01/06 08:31:44;;;;;;;5.33;1.70;;;10.70;99.90;;;;;;5073710;28;20206;-79
2023/01/06 08:34:13;;;;;;;2.27;1.27;;;10.60;99.90;;;;;;5073541;28;20654;-80
2023/01/06 08:36:42;;;;;;;1.57;1.10;;;10.80;99.90;;;;;;5073341;28;20333;-79
2023/01/06 08:39:11;;;;;;;2.10;1.10;;;10.80;99.90;;;;;;5073502;28;20677;-80
2023/01/06 08:41:38;;;;;;;3.70;1.40;;;10.80;99.90;;;;;;5073064;28;20218;-79
2023/01/06 08:44:06;;;;;;;2.93;1.47;;;10.70;99.90;;;;;;5074363;28;20198;-80
2023/01/06 08:46:34;;;;;;;2.20;1.40;;;10.80;99.90;;;;;;5074452;28;20202;-80
2023/01/06 08:49:01;;;;;;;1.67;1.00;;;10.80;99.90;;;;;;5074705;28;20226;-80
2023/01/06 08:51:28;;;;;;;3.07;1.40;;;10.80;99.90;;;;;;5074191;28;20202;-80
2023/01/06 08:53:55;;;;;;;3.03;1.10;;;10.80;99.90;;;;;;5074077;28;20257;-81
2023/01/06 08:56:27;;;;;;;1.77;1.13;;;10.90;99.90;;;;;;5075652;28;20202;-80
2023/01/06 08:58:56;;;;;;;4.67;1.30;;;11.00;99.90;;;;;;5075571;28;20658;-79
2023/01/06 09:01:25;;;;;;;2.13;1.00;;;11.00;99.90;;;;;;5070724;28;20255;-80
2023/01/06 09:03:52;;;;;;;1.60;1.27;;;11.00;99.90;;;;;;5053720;28;20314;-80
2023/01/06 09:06:20;;;;;;;2.87;1.27;;;11.00;99.90;;;;;;5053919;28;20575;-82
2023/01/06 09:08:48;;;;;;;2.20;1.10;;;11.10;99.90;;;;;;5067524;28;20214;-81
2023/01/06 09:11:16;;;;;;;3.87;1.20;;;11.10;99.90;;;;;;5072737;28;20217;-81
2023/01/06 09:13:45;;;;;;;2.40;1.23;;;11.20;99.90;;;;;;5073907;28;20217;-81
2023/01/06 09:16:13;;;;;;;1.00;1.00;;;11.40;99.90;;;;;;5075101;28;20198;-80
2023/01/06 09:18:43;;;;;;;2.70;1.10;;;11.50;99.90;;;;;;5074572;28;20454;-80
2023/01/06 09:21:10;;;;;;;2.30;1.20;;;11.60;99.90;;;;;;5069070;28;20297;-81
2023/01/06 09:23:37;;;;;;;1.80;1.33;;;11.60;99.90;;;;;;5055102;28;20227;-83
2023/01/06 09:26:05;;;;;;;1.37;0.80;;;11.60;99.90;;;;;;5055352;28;20210;-81
2023/01/06 09:28:32;;;;;;;2.80;1.00;;;11.50;99.90;;;;;;5066206;28;20635;-81
2023/01/06 09:31:00;;;;;;;2.10;1.30;;;11.50;99.90;;;;;;5076391;28;20201;-82
2023/01/06 09:33:27;;;;;;;3.03;1.20;;;11.50;99.90;;;;;;5063668;28;20231;-82
2023/01/06 09:35:54;;;;;;;3.30;1.10;;;11.30;99.90;;;;;;5055200;28;20573;-83
2023/01/06 09:38:21;;;;;;;1.20;0.90;;;11.30;99.90;;;;;;5060807;28;20195;-81
2023/01/06 09:41:01;;;;;;;1.07;0.87;;;11.20;99.90;;;;;;5064902;28;20206;-80
2023/01/06 09:43:38;;;;;;;2.70;1.17;;;11.20;99.90;;;;;;5074144;28;20601;-82
2023/01/06 09:46:10;;;;;;;2.30;1.07;;;11.20;99.90;;;;;;5075563;28;20209;-82
2023/01/06 09:48:43;;;;;;;1.97;1.50;;;11.20;99.90;;;;;;5069062;28;20237;-83
2023/01/06 09:51:18;;;;;;;2.10;1.10;;;11.50;99.90;;;;;;5055653;28;20213;-80
2023/01/06 09:53:50;;;;;;;1.50;0.90;;;11.30;99.90;;;;;;5055309;28;20325;-82
2023/01/06 09:56:19;;;;;;;0.70;0.70;;;11.30;99.90;;;;;;5056791;28;20213;-82
2023/01/06 09:58:51;;;;;;;0.90;0.90;;;11.30;99.90;;;;;;5054913;28;20210;-81
2023/01/06 10:01:27;;;;;;;2.17;1.00;;;11.30;99.90;;;;;;5056950;28;20214;-81
2023/01/06 10:03:55;;;;;;;1.00;0.93;;;11.30;99.90;;;;;;5056667;28;20749;-81
2023/01/06 10:06:31;;;;;;;1.13;0.77;;;11.30;99.90;;;;;;5055082;28;20226;-80
2023/01/06 10:09:08;;;;;;;1.10;0.80;;;11.10;99.90;;;;;;5069163;28;20217;-82
2023/01/06 10:11:44;;;;;;;0.60;0.60;;;11.00;99.90;;;;;;5078001;28;20654;-82
2023/01/06 10:14:17;;;;;;;1.27;0.73;;;11.10;99.90;;;;;;5077608;28;20202;-82
2023/01/06 10:16:57;;;;;;;1.30;1.10;;;11.10;99.90;;;;;;5078890;28;20210;-83
2023/01/06 10:19:37;;;;;;;1.27;1.00;;;11.00;99.90;;;;;;5079045;28;20379;-82
2023/01/06 10:22:11;;;;;;;1.30;1.20;;;10.90;99.90;;;;;;5077700;28;20230;-83
2023/01/06 10:24:48;;;;;;;1.20;1.10;;;11.00;99.90;;;;;;5080696;28;20282;-82
2023/01/06 10:27:25;;;;;;;3.97;0.93;;;11.00;99.90;;;;;;5066340;28;20228;-81
2023/01/06 10:29:54;;;;;;;1.53;1.07;;;10.90;99.90;;;;;;5077317;28;20258;-81
2023/01/06 10:32:28;;;;;;;2.53;1.40;;;10.80;99.90;;;;;;5066708;28;20759;-81
2023/01/06 10:34:56;;;;;;;1.67;1.40;;;10.90;99.90;;;;;;5057173;28;20616;-82
2023/01/06 10:37:30;;;;;;;3.33;1.30;;;10.80;99.90;;;;;;5056936;28;20294;-82
2023/01/06 10:40:03;;;;;;;1.40;1.30;;;10.80;99.90;;;;;;5055823;28;20207;-82
2023/01/06 10:42:59;;;;;;;1.17;1.10;;;10.80;99.90;;;;;;5064479;28;20325;-82
2023/01/06 10:45:29;;;;;;;1.50;1.13;;;10.90;99.90;;;;;;5056803;28;20554;-81
2023/01/06 10:47:57;;;;;;;2.50;1.70;;;10.90;99.90;;;;;;5055639;28;20286;-79
2023/01/06 10:50:24;;;;;;;5.40;2.00;;;10.90;99.90;;;;;;5073329;28;20201;-83
2023/01/06 10:52:51;;;;;;;2.30;2.10;;;10.80;99.90;;;;;;5076143;28;20215;-82
2023/01/06 10:55:40;;;;;;;3.17;2.07;;;10.90;99.90;;;;;;5077405;28;20681;-81
2023/01/06 10:58:30;;;;;;;2.17;1.97;;;10.80;99.90;;;;;;5077167;28;20282;-81
2023/01/06 11:00:59;;;;;;;2.03;1.87;;;10.80;99.90;;;;;;5076003;28;20617;-83
2023/01/06 11:03:29;;;;;;;2.60;2.27;;;10.80;99.90;;;;;;5075857;28;20214;-81
2023/01/06 11:06:14;;;;;;;2.70;2.20;;;10.80;99.90;;;;;;5076414;28;20715;-81
2023/01/06 11:08:41;;;;;;;4.93;2.20;;;10.80;99.90;;;;;;5074978;28;20209;-81
2023/01/06 11:11:13;;;;;;;2.97;2.10;;;10.80;99.90;;;;;;5074520;28;20650;-81
2023/01/06 11:13:46;;;;;;;3.57;3.00;;;10.80;99.90;;;;;;5074682;28;20301;-81
2023/01/06 11:16:19;;;;;;;3.53;2.30;;;10.70;99.90;;;;;;5076388;28;20262;-81
2023/01/06 11:18:54;;;;;;;3.73;2.10;;;10.70;99.90;;;;;;5072235;28;20622;-81
2023/01/06 11:21:21;;;;;;;4.43;2.30;;;10.70;99.90;;;;;;5076864;28;20719;-81
2023/01/06 11:23:48;;;;;;;2.10;2.00;;;10.70;99.90;;;;;;5068940;28;20225;-80
2023/01/06 11:26:18;;;;;;;2.97;2.07;;;10.70;99.90;;;;;;5075240;28;20232;-78
2023/01/06 11:28:46;;;;;;;2.40;2.10;;;10.80;99.90;;;;;;5081513;28;20281;-80
2023/01/06 11:31:20;;;;;;;2.40;1.70;;;10.80;99.90;;;;;;5078682;28;20210;-81
2023/01/06 11:33:50;;;;;;;1.87;1.70;;;10.90;99.90;;;;;;5082916;28;20228;-81
2023/01/06 11:36:22;;;;;;;1.63;1.53;;;10.90;99.90;;;;;;5082589;28;20670;-80
2023/01/06 11:38:56;;;;;;;2.60;1.60;;;11.00;99.90;;;;;;5078902;28;20226;-80
2023/01/06 11:41:31;;;;;;;1.90;1.80;;;11.00;99.90;;;;;;5078121;28;20210;-82
2023/01/06 11:44:13;;;;;;;1.70;1.60;;;11.10;99.90;;;;;;5076787;28;20226;-81
2023/01/06 11:46:47;;;;;;;1.70;1.60;;;11.10;99.90;;;;;;5084083;28;20206;-82
2023/01/06 11:49:19;;;;;;;1.50;1.43;;;11.00;99.90;;;;;;5082603;28;20228;-82
2023/01/06 11:51:49;;;;;;;1.50;1.40;;;11.00;99.90;;;;;;5081555;28;20209;-81
2023/01/06 11:54:24;;;;;;;1.73;1.20;;;11.00;99.90;;;;;;5079666;28;20206;-81
2023/01/06 11:56:59;;;;;;;1.97;1.77;;;11.00;99.90;;;;;;5072208;28;20210;-81
2023/01/06 11:59:31;;;;;;;1.87;1.73;;;11.00;99.90;;;;;;5076481;28;20708;-81
2023/01/06 12:01:59;;;;;;;2.10;2.00;;;10.90;99.90;;;;;;5077864;28;20593;-82
2023/01/06 12:04:32;;;;;;;2.40;2.20;;;10.80;99.90;;;;;;5077909;28;20202;-82
2023/01/06 12:07:07;;;;;;;3.20;2.40;;;10.80;99.90;;;;;;5078519;28;20214;-82
2023/01/06 12:09:38;;;;;;;2.50;2.27;;;10.70;99.90;;;;;;5075690;28;20229;-82
2023/01/06 12:12:07;;;;;;;2.70;2.47;;;10.70;99.90;;;;;;5084592;28;20317;-82
2023/01/06 12:14:36;;;;;;;3.97;2.67;;;10.70;99.90;;;;;;5083780;28;20296;-82
2023/01/06 12:17:11;;;;;;;2.87;2.47;;;10.60;99.90;;;;;;5077345;28;20662;-82
2023/01/06 12:19:42;;;;;;;3.07;2.73;;;10.80;99.90;;;;;;5080859;28;20564;-82
2023/01/06 12:22:22;;;;;;;3.23;2.90;;;10.90;99.90;;;;;;5073661;28;20226;-82
2023/01/06 12:24:51;;;;;;;3.03;2.80;;;11.00;99.90;;;;;;5067112;28;20646;-81
2023/01/06 12:27:31;;;;;;;3.23;2.90;;;11.00;99.90;;;;;;5082628;28;20202;-82
2023/01/06 12:30:01;;;;;;;3.80;3.33;;;11.00;99.90;;;;;;5075546;28;20229;-82
2023/01/06 12:32:38;;;;;;;3.90;3.50;;;11.10;99.90;;;;;;5082263;28;20219;-81
2023/01/06 12:35:06;;;;;;;3.27;2.97;;;11.20;99.90;;;;;;5070763;28;20207;-81
2023/01/06 12:37:41;;;;;;;3.23;3.03;;;11.10;99.90;;;;;;5079450;28;20212;-81
2023/01/06 12:40:18;;;;;;;3.83;3.53;;;11.10;99.90;;;;;;5073996;28;20642;-81
2023/01/06 12:42:53;;;;;;;5.37;3.70;;;11.10;99.90;;;;;;5066535;28;20233;-81
2023/01/06 12:45:29;;;;;;;6.20;3.70;;;11.10;99.90;;;;;;5066667;28;20225;-81
2023/01/06 12:47:58;;;;;;;3.67;3.37;;;11.10;99.90;;;;;;5078429;28;20626;-81
2023/01/06 12:50:31;;;;;;;3.80;3.50;;;11.10;99.90;;;;;;5083256;28;20225;-82
2023/01/06 12:53:04;;;;;;;4.47;3.30;;;10.90;99.90;;;;;;5075786;28;20272;-83
2023/01/06 12:55:44;;;;;;;4.70;3.27;;;11.30;99.90;;;;;;5082192;28;20285;-81
2023/01/06 12:58:24;;;;;;;3.63;3.20;;;12.00;99.90;;;;;;5078785;28;20289;-81
2023/01/06 13:00:54;;;;;;;3.00;2.70;;;12.30;99.90;;;;;;5076746;28;20201;-80
2023/01/06 13:03:56;;;;;;;3.10;2.87;;;12.00;99.90;;;;;;5081755;28;20225;-79
2023/01/06 13:06:38;;;;;;;3.10;2.40;;;11.90;99.90;;;;;;5076701;28;20198;-79
2023/01/06 13:09:24;;;;;;;3.73;2.10;;;11.80;99.90;;;;;;5075034;28;20772;-79
2023/01/06 13:12:24;;;;;;;2.57;1.90;;;11.80;99.90;;;;;;5075381;28;20190;-80
2023/01/06 13:14:58;;;;;;;2.57;2.37;;;11.80;99.90;;;;;;5050309;28;20704;-78
2023/01/06 13:17:31;;;;;;;2.50;2.17;;;11.70;99.90;;;;;;5074236;28;20202;-79
2023/01/06 13:20:01;;;;;;;2.50;2.30;;;11.70;99.90;;;;;;5082418;28;20681;-80